Airport View

Enter AWOS ICAO identifier for current METAR.

ex. KFNL

KRSN 251115Z AUTO 03004KT 4SM BR OVC003 10/09 A3005 RMK AO2 T01030094

25 Oct 2020 11:37

Frequency: 119.525

Phone: 318-242-0062

Other Area AWOS: KMLU - KMNE - KBQP - KELD

TAF KMLU 250541Z 2506/2606 02004KT P6SM OVC007 FM251000 VRB03KT 4SM BR OVC007 FM251500 04005KT P6SM OVC015 FM260300 06004KT P6SM OVC009